createdAt,value
2017-11-12T00:00:33.833Z,14.47
2017-11-12T00:03:01.501Z,10.83
2017-11-12T00:05:29.208Z,9.97
2017-11-12T00:07:57.645Z,10.23
2017-11-12T00:10:25.356Z,7.60
2017-11-12T00:12:53.784Z,8.83
2017-11-12T00:15:21.488Z,11.03
2017-11-12T00:17:49.917Z,12.20
2017-11-12T00:20:17.624Z,6.90
2017-11-12T00:22:46.045Z,7.37
2017-11-12T00:25:13.708Z,7.73
2017-11-12T00:27:41.412Z,6.53
2017-11-12T00:30:09.840Z,10.70
2017-11-12T00:32:37.538Z,7.40
2017-11-12T00:35:05.196Z,6.70
2017-11-12T00:37:32.936Z,11.13
2017-11-12T00:40:01.365Z,5.67
2017-11-12T00:42:29.111Z,16.03
2017-11-12T00:44:57.535Z,12.40
2017-11-12T00:47:25.248Z,10.33
2017-11-12T00:49:53.672Z,6.90
2017-11-12T00:52:21.369Z,10.43
2017-11-12T00:54:49.019Z,9.70
2017-11-12T00:57:16.716Z,10.37
2017-11-12T00:59:44.365Z,9.33
2017-11-12T01:02:12.829Z,7.20
2017-11-12T01:04:40.492Z,9.80
2017-11-12T01:07:08.192Z,6.00
2017-11-12T01:09:35.877Z,6.33
2017-11-12T01:12:03.575Z,11.90
2017-11-12T01:14:31.996Z,8.80
2017-11-12T01:16:59.717Z,10.87
2017-11-12T01:19:28.144Z,9.37
2017-11-12T01:21:55.842Z,11.90
2017-11-12T01:24:23.682Z,12.60
2017-11-12T01:26:51.384Z,10.37
2017-11-12T01:29:19.813Z,11.70
2017-11-12T01:31:47.528Z,10.50
2017-11-12T01:34:15.955Z,13.73
2017-11-12T01:36:43.677Z,12.57
2017-11-12T01:39:11.352Z,11.50
2017-11-12T01:41:39.068Z,22.67
2017-11-12T01:44:07.529Z,26.93
2017-11-12T01:46:35.249Z,25.83
2017-11-12T01:49:02.923Z,13.50
2017-11-12T01:51:30.648Z,8.50
2017-11-12T01:53:58.326Z,10.10
2017-11-12T01:56:26.031Z,8.20
2017-11-12T01:58:53.727Z,10.73
2017-11-12T02:01:21.464Z,7.50
2017-11-12T02:03:49.182Z,6.30
2017-11-12T02:06:16.941Z,9.40
2017-11-12T02:08:44.638Z,7.13
2017-11-12T02:11:12.373Z,7.60
2017-11-12T02:13:40.051Z,6.50
2017-11-12T02:16:07.774Z,9.10
2017-11-12T02:18:35.436Z,5.00
2017-11-12T02:21:03.248Z,9.10
2017-11-12T02:23:30.960Z,5.93
2017-11-12T02:25:58.728Z,7.47
2017-11-12T02:28:26.447Z,9.47
2017-11-12T02:30:54.991Z,7.93
2017-11-12T02:33:22.716Z,6.47
2017-11-12T02:35:50.488Z,8.77
2017-11-12T02:38:18.188Z,8.87
2017-11-12T02:40:45.907Z,11.77
2017-11-12T02:43:13.655Z,7.30
2017-11-12T02:45:41.388Z,6.20
2017-11-12T02:48:09.912Z,7.37
2017-11-12T02:50:37.615Z,6.93
2017-11-12T02:53:05.380Z,6.90
2017-11-12T02:55:33.872Z,6.73
2017-11-12T02:58:02.372Z,8.27
2017-11-12T03:00:30.043Z,9.30
2017-11-12T03:02:57.773Z,6.73
2017-11-12T03:05:26.204Z,8.23
2017-11-12T03:07:54.696Z,8.00
2017-11-12T03:10:22.418Z,7.70
2017-11-12T03:12:50.129Z,14.03
2017-11-12T03:15:17.821Z,8.87
2017-11-12T03:17:45.596Z,6.93
2017-11-12T03:20:13.302Z,9.23
2017-11-12T03:22:41.021Z,10.70
2017-11-12T03:25:08.755Z,7.10
2017-11-12T03:27:36.525Z,10.37
2017-11-12T03:30:05.368Z,10.20
2017-11-12T03:32:33.095Z,12.93
2017-11-12T03:35:00.764Z,9.10
2017-11-12T03:37:28.469Z,14.43
2017-11-12T03:39:56.895Z,10.53
2017-11-12T03:42:24.601Z,13.60
2017-11-12T03:44:53.065Z,9.93
2017-11-12T03:47:20.782Z,12.93
2017-11-12T03:49:48.466Z,11.73
2017-11-12T03:52:16.214Z,11.40
2017-11-12T03:54:43.942Z,11.73
2017-11-12T03:57:12.456Z,14.03
2017-11-12T03:59:40.148Z,11.63
2017-11-12T04:02:07.878Z,15.27
2017-11-12T04:04:35.592Z,10.37
2017-11-12T04:07:04.133Z,15.43
2017-11-12T04:09:31.816Z,17.83
2017-11-12T04:11:59.589Z,13.23
2017-11-12T04:14:28.072Z,12.13
2017-11-12T04:16:56.591Z,13.27
2017-11-12T04:19:24.296Z,14.27
2017-11-12T04:21:52.030Z,12.57
2017-11-12T04:24:19.691Z,14.13
2017-11-12T04:26:47.380Z,12.30
2017-11-12T04:29:15.805Z,14.47
2017-11-12T04:31:43.522Z,18.50
2017-11-12T04:34:11.944Z,13.60
2017-11-12T04:36:39.636Z,14.10
2017-11-12T04:39:07.298Z,14.83
2017-11-12T04:41:34.997Z,14.43
2017-11-12T04:44:02.652Z,14.30
2017-11-12T04:46:30.348Z,16.60
2017-11-12T04:48:58.008Z,16.50
2017-11-12T04:51:25.704Z,13.30
2017-11-12T04:53:53.356Z,17.87
2017-11-12T04:56:21.082Z,19.90
2017-11-12T04:58:48.773Z,14.20
2017-11-12T05:01:16.535Z,19.33
2017-11-12T05:03:44.252Z,15.80
2017-11-12T05:06:11.925Z,18.20
2017-11-12T05:08:39.644Z,20.50
2017-11-12T05:11:08.114Z,17.83
2017-11-12T05:13:36.580Z,17.77
2017-11-12T05:16:04.246Z,18.20
2017-11-12T05:18:32.724Z,18.53
2017-11-12T05:21:00.388Z,16.07
2017-11-12T05:23:28.861Z,21.27
2017-11-12T05:25:57.295Z,20.87
2017-11-12T05:28:25.009Z,24.93
2017-11-12T05:30:53.436Z,20.97
2017-11-12T05:33:21.159Z,20.07
2017-11-12T05:35:50.406Z,18.13
2017-11-12T05:38:21.025Z,18.17
2017-11-12T05:40:50.559Z,19.80
2017-11-12T05:43:21.719Z,20.37
2017-11-12T05:45:50.464Z,21.63
2017-11-12T05:48:20.068Z,22.93
2017-11-12T05:50:49.147Z,26.90
2017-11-12T05:53:18.763Z,22.27
2017-11-12T05:55:47.488Z,21.17
2017-11-12T05:58:17.991Z,20.83
2017-11-12T06:00:47.612Z,17.50
2017-11-12T06:03:16.468Z,18.33
2017-11-12T06:05:46.996Z,17.00
2017-11-12T06:08:16.744Z,22.20
2017-11-12T06:10:46.944Z,19.80
2017-11-12T06:13:16.780Z,20.07
2017-11-12T06:15:44.654Z,21.13
2017-11-12T06:18:12.451Z,19.63
2017-11-12T06:20:40.172Z,21.53
2017-11-12T06:23:07.869Z,17.83
2017-11-12T06:25:35.523Z,17.70
2017-11-12T06:28:03.217Z,24.80
2017-11-12T06:30:30.876Z,21.37
2017-11-12T06:32:58.616Z,21.30
2017-11-12T06:35:26.300Z,26.90
2017-11-12T06:37:54.012Z,26.73
2017-11-12T06:40:21.673Z,22.50
2017-11-12T06:42:49.440Z,22.60
2017-11-12T06:45:17.113Z,22.40
2017-11-12T06:47:44.808Z,22.50
2017-11-12T06:50:13.240Z,19.70
2017-11-12T06:52:40.945Z,27.00
2017-11-12T06:55:09.381Z,19.67
2017-11-12T06:57:37.101Z,20.53
2017-11-12T07:00:05.529Z,22.90
2017-11-12T07:02:33.228Z,19.50
2017-11-12T07:05:01.652Z,21.40
2017-11-12T07:07:29.347Z,20.80
2017-11-12T07:09:57.017Z,25.30
2017-11-12T07:12:25.496Z,24.50
2017-11-12T07:14:53.927Z,27.73
2017-11-12T07:17:21.677Z,24.20
2017-11-12T07:19:49.389Z,29.40
2017-11-12T07:22:17.109Z,33.40
2017-11-12T07:24:44.769Z,29.53
2017-11-12T07:27:12.465Z,26.27
2017-11-12T07:29:40.131Z,33.23
2017-11-12T07:32:07.833Z,23.93
2017-11-12T07:34:35.528Z,28.60
2017-11-12T07:37:03.220Z,26.27
2017-11-12T07:39:31.640Z,27.23
2017-11-12T07:41:59.357Z,25.67
2017-11-12T07:44:27.781Z,31.50
2017-11-12T07:46:55.436Z,35.77
2017-11-12T07:49:23.145Z,28.67
2017-11-12T07:51:51.591Z,29.27
2017-11-12T07:54:19.288Z,27.90
2017-11-12T07:56:47.713Z,27.63
2017-11-12T07:59:15.412Z,28.53
2017-11-12T08:01:43.076Z,22.23
2017-11-12T08:04:10.776Z,25.87
2017-11-12T08:06:38.452Z,24.73
2017-11-12T08:09:06.149Z,26.47
2017-11-12T08:11:33.809Z,26.87
2017-11-12T08:14:01.515Z,25.43
2017-11-12T08:16:29.165Z,30.87
2017-11-12T08:18:56.883Z,22.97
2017-11-12T08:21:24.578Z,26.03
2017-11-12T08:23:52.282Z,26.17
2017-11-12T08:26:19.946Z,26.40
2017-11-12T08:28:47.665Z,39.90
2017-11-12T08:31:15.357Z,30.80
2017-11-12T08:33:43.081Z,35.97
2017-11-12T08:36:10.794Z,40.87
2017-11-12T08:38:38.564Z,66.67
2017-11-12T08:41:06.295Z,46.27
2017-11-12T08:43:34.048Z,24.67
2017-11-12T08:46:01.781Z,23.33
2017-11-12T08:48:29.576Z,27.20
2017-11-12T08:50:57.332Z,29.63
2017-11-12T08:53:25.102Z,27.20
2017-11-12T08:55:52.809Z,21.17
2017-11-12T08:58:21.308Z,30.27
2017-11-12T09:00:48.981Z,21.90
2017-11-12T09:03:16.685Z,37.87
2017-11-12T09:05:44.376Z,30.40
2017-11-12T09:08:12.885Z,22.43
2017-11-12T09:10:40.584Z,22.73
2017-11-12T09:13:08.304Z,24.67
2017-11-12T09:15:35.998Z,22.83
2017-11-12T09:18:03.725Z,23.23
2017-11-12T09:20:31.399Z,23.57
2017-11-12T09:22:59.133Z,28.07
2017-11-12T09:25:26.825Z,29.03
2017-11-12T09:27:54.541Z,27.03
2017-11-12T09:30:23.060Z,24.40
2017-11-12T09:32:50.751Z,32.77
2017-11-12T09:35:18.469Z,24.33
2017-11-12T09:37:46.149Z,27.90
2017-11-12T09:40:14.624Z,27.37
2017-11-12T09:42:43.104Z,25.63
2017-11-12T09:45:10.890Z,25.17
2017-11-12T09:47:38.560Z,26.30
2017-11-12T09:50:06.285Z,34.00
2017-11-12T09:52:33.987Z,30.13
2017-11-12T09:55:02.452Z,24.97
2017-11-12T09:57:30.125Z,27.93
2017-11-12T09:59:58.601Z,23.47
2017-11-12T10:02:27.043Z,21.80
2017-11-12T10:04:54.736Z,22.47
2017-11-12T10:07:23.166Z,23.17
2017-11-12T10:09:50.877Z,20.77
2017-11-12T10:12:19.296Z,24.90
2017-11-12T10:14:47.226Z,21.00
2017-11-12T10:17:15.668Z,23.97
2017-11-12T10:19:43.393Z,26.40
2017-11-12T10:22:11.055Z,23.77
2017-11-12T10:24:38.724Z,24.77
2017-11-12T10:27:07.376Z,19.57
2017-11-12T10:29:35.805Z,37.17
2017-11-12T10:32:03.513Z,31.87
2017-11-12T10:34:31.169Z,18.80
2017-11-12T10:36:59.632Z,21.53
2017-11-12T10:39:28.057Z,21.27
2017-11-12T10:41:55.787Z,21.87
2017-11-12T10:44:24.200Z,21.10
2017-11-12T10:46:51.978Z,22.10
2017-11-12T10:49:19.666Z,18.83
2017-11-12T10:51:48.140Z,21.23
2017-11-12T10:54:15.806Z,16.00
2017-11-12T10:56:44.269Z,16.97
2017-11-12T10:59:11.923Z,15.00
2017-11-12T11:01:39.647Z,17.63
2017-11-12T11:04:07.317Z,15.30
2017-11-12T11:06:35.014Z,13.43
2017-11-12T11:09:02.681Z,9.70
2017-11-12T11:11:31.151Z,9.47
2017-11-12T11:13:58.805Z,6.60
2017-11-12T11:16:26.496Z,6.20
2017-11-12T11:18:54.148Z,14.63
2017-11-12T11:21:22.613Z,9.77
2017-11-12T11:23:51.044Z,8.30
2017-11-12T11:26:18.748Z,7.23
2017-11-12T11:28:46.400Z,8.30
2017-11-12T11:31:14.060Z,7.37
2017-11-12T11:33:41.881Z,6.10
2017-11-12T11:36:09.561Z,8.00
2017-11-12T11:38:37.267Z,7.10
2017-11-12T11:41:05.688Z,6.40
2017-11-12T11:43:33.401Z,7.40
2017-11-12T11:46:01.830Z,7.50
2017-11-12T11:48:29.552Z,7.77
2017-11-12T11:50:57.251Z,12.30
2017-11-12T11:53:24.965Z,10.30
2017-11-12T11:55:53.456Z,10.73
2017-11-12T11:58:21.201Z,15.47
2017-11-12T12:00:49.701Z,8.20
2017-11-12T12:03:17.457Z,13.70
2017-11-12T12:05:45.145Z,13.80
2017-11-12T12:08:12.880Z,10.50
2017-11-12T12:10:40.577Z,15.00
2017-11-12T12:13:08.309Z,13.30
2017-11-12T12:15:35.980Z,19.63
2017-11-12T12:18:03.689Z,14.77
2017-11-12T12:20:32.125Z,20.57
2017-11-12T12:22:59.833Z,36.77
2017-11-12T12:25:28.266Z,19.07
2017-11-12T12:27:56.016Z,11.43
2017-11-12T12:30:23.671Z,7.43
2017-11-12T12:32:51.372Z,10.90
2017-11-12T12:35:19.149Z,9.67
2017-11-12T12:37:46.905Z,8.43
2017-11-12T12:40:15.358Z,8.30
2017-11-12T12:42:43.064Z,6.30
2017-11-12T12:45:10.772Z,8.07
2017-11-12T12:47:38.445Z,7.87
2017-11-12T12:50:06.157Z,6.90
2017-11-12T12:52:33.820Z,7.43
2017-11-12T12:55:01.529Z,9.67
2017-11-12T12:57:29.201Z,8.67
2017-11-12T12:59:57.102Z,7.90
2017-11-12T13:02:24.773Z,8.13
2017-11-12T13:04:52.499Z,6.80
2017-11-12T13:07:21.040Z,11.47
2017-11-12T13:09:48.755Z,7.53
2017-11-12T13:12:16.441Z,7.00
2017-11-12T13:14:44.186Z,4.43
2017-11-12T13:17:11.894Z,5.70
2017-11-12T13:19:39.591Z,6.27
2017-11-12T13:22:07.264Z,4.87
2017-11-12T13:24:34.986Z,5.10
2017-11-12T13:27:02.672Z,5.40
2017-11-12T13:29:30.428Z,5.20
2017-11-12T13:31:58.225Z,3.50
2017-11-12T13:34:25.933Z,8.83
2017-11-12T13:36:54.485Z,24.30
2017-11-12T13:39:22.186Z,44.63
2017-11-12T13:41:50.691Z,61.47
2017-11-12T13:44:18.363Z,14.10
2017-11-12T13:46:46.073Z,6.40
2017-11-12T13:49:14.504Z,6.20
2017-11-12T13:51:42.200Z,4.97
2017-11-12T13:54:09.863Z,4.17
2017-11-12T13:56:37.573Z,5.13
2017-11-12T13:59:05.249Z,4.37
2017-11-12T14:01:32.964Z,5.10
2017-11-12T14:04:01.402Z,3.73
2017-11-12T14:06:29.112Z,4.10
2017-11-12T14:09:05.389Z,5.17
2017-11-12T14:11:33.088Z,3.70
2017-11-12T14:14:00.754Z,6.10
2017-11-12T14:16:28.461Z,3.90
2017-11-12T14:18:56.124Z,4.53
2017-11-12T14:21:23.861Z,4.03
2017-11-12T14:23:52.288Z,6.13
2017-11-12T14:26:19.990Z,5.67
2017-11-12T14:28:48.428Z,4.10
2017-11-12T14:31:16.140Z,3.80
2017-11-12T14:33:44.585Z,3.53
2017-11-12T14:36:12.312Z,5.73
2017-11-12T14:38:39.998Z,4.20
2017-11-12T14:41:07.736Z,7.83
2017-11-12T14:43:35.485Z,5.03
2017-11-12T14:46:03.253Z,5.97
2017-11-12T14:48:30.945Z,18.60
2017-11-12T14:50:58.660Z,8.90
2017-11-12T14:53:26.373Z,5.70
2017-11-12T14:55:54.052Z,4.03
2017-11-12T14:58:22.591Z,4.80
2017-11-12T15:00:50.297Z,3.90
2017-11-12T15:03:18.817Z,5.17
2017-11-12T15:05:46.498Z,4.73
2017-11-12T15:08:14.226Z,17.80
2017-11-12T15:10:41.911Z,12.87
2017-11-12T15:13:09.626Z,15.87
2017-11-12T15:15:37.290Z,9.83
2017-11-12T15:18:05.000Z,8.43
2017-11-12T15:20:32.665Z,8.70
2017-11-12T15:23:00.427Z,6.87
2017-11-12T15:25:28.093Z,6.40
2017-11-12T15:27:55.804Z,4.87
2017-11-12T15:30:23.491Z,5.57
2017-11-12T15:32:51.200Z,22.67
2017-11-12T15:35:19.654Z,15.90
2017-11-12T15:37:48.168Z,19.53
2017-11-12T15:40:15.972Z,17.70
2017-11-12T15:42:43.734Z,9.50
2017-11-12T15:45:11.417Z,8.20
2017-11-12T15:47:39.124Z,11.00
2017-11-12T15:50:06.801Z,14.70
2017-11-12T15:52:34.512Z,6.47
2017-11-12T15:55:02.951Z,13.47
2017-11-12T15:57:30.638Z,6.10
2017-11-12T15:59:58.340Z,7.60
2017-11-12T16:02:26.007Z,9.47
2017-11-12T16:04:53.736Z,8.20
2017-11-12T16:07:22.183Z,8.90
2017-11-12T16:09:49.893Z,8.00
2017-11-12T16:12:17.552Z,9.10
2017-11-12T16:14:45.347Z,5.23
2017-11-12T16:17:13.007Z,6.77
2017-11-12T16:19:40.734Z,6.77
2017-11-12T16:22:08.385Z,7.33
2017-11-12T16:24:36.105Z,13.33
2017-11-12T16:27:04.155Z,10.43
2017-11-12T16:29:32.022Z,14.30
2017-11-12T16:31:59.702Z,10.20
2017-11-12T16:34:27.429Z,11.00
2017-11-12T16:36:55.101Z,12.50
2017-11-12T16:39:22.829Z,10.83
2017-11-12T16:41:50.501Z,7.33
2017-11-12T16:44:18.257Z,6.63
2017-11-12T16:46:45.961Z,4.40
2017-11-12T16:49:13.688Z,3.20
2017-11-12T16:51:41.394Z,3.97
2017-11-12T16:54:09.960Z,3.83
2017-11-12T16:56:37.653Z,3.40
2017-11-12T16:59:06.112Z,3.93
2017-11-12T17:01:34.597Z,4.70
2017-11-12T17:04:03.054Z,5.30
2017-11-12T17:06:30.792Z,4.60
2017-11-12T17:08:58.452Z,8.33
2017-11-12T17:11:26.157Z,4.20
2017-11-12T17:13:54.580Z,5.00
2017-11-12T17:16:22.289Z,5.07
2017-11-12T17:18:50.740Z,5.53
2017-11-12T17:21:18.484Z,5.27
2017-11-12T17:23:46.196Z,4.90
2017-11-12T17:26:13.966Z,6.00
2017-11-12T17:28:41.665Z,5.40
2017-11-12T17:31:10.138Z,7.03
2017-11-12T17:33:37.814Z,8.37
2017-11-12T17:36:05.575Z,14.80
2017-11-12T17:38:33.336Z,12.87
2017-11-12T17:41:01.095Z,12.60
2017-11-12T17:43:28.754Z,17.87
2017-11-12T17:45:56.461Z,38.40
2017-11-12T17:48:24.144Z,51.80
2017-11-12T17:50:51.870Z,58.87
2017-11-12T17:53:20.318Z,37.90
2017-11-12T17:55:48.088Z,15.73
2017-11-12T17:58:15.748Z,19.53
2017-11-12T18:00:43.454Z,10.00
2017-11-12T18:03:11.258Z,9.63
2017-11-12T18:05:38.955Z,9.67
2017-11-12T18:08:07.462Z,9.77
2017-11-12T18:10:35.141Z,7.17
2017-11-12T18:13:02.857Z,7.80
2017-11-12T18:15:31.280Z,6.37
2017-11-12T18:17:58.986Z,4.77
2017-11-12T18:20:27.442Z,4.90
2017-11-12T18:22:55.150Z,4.10
2017-11-12T18:25:22.838Z,4.50
2017-11-12T18:27:50.993Z,4.07
2017-11-12T18:30:18.671Z,8.60
2017-11-12T18:32:46.412Z,7.30
2017-11-12T18:35:14.069Z,11.63
2017-11-12T18:37:41.792Z,7.87
2017-11-12T18:40:10.353Z,4.70
2017-11-12T18:42:38.097Z,7.50
2017-11-12T18:45:05.782Z,3.20
2017-11-12T18:47:33.484Z,3.37
2017-11-12T18:50:01.296Z,4.10
2017-11-12T18:52:29.036Z,4.90
2017-11-12T18:54:56.728Z,7.37
2017-11-12T18:57:34.369Z,5.70
2017-11-12T19:00:02.952Z,8.13
2017-11-12T19:02:36.239Z,7.03
2017-11-12T19:08:04.769Z,5.53
2017-11-12T19:10:32.505Z,6.87
2017-11-12T19:13:00.276Z,4.73
2017-11-12T19:15:28.039Z,7.63
2017-11-12T19:17:56.714Z,10.73
2017-11-12T19:20:41.179Z,12.17
2017-11-12T19:23:15.634Z,8.10
2017-11-12T19:25:50.802Z,7.23
2017-11-12T19:28:18.585Z,7.93
2017-11-12T19:30:46.313Z,8.30
2017-11-12T19:33:14.063Z,14.77
2017-11-12T19:35:42.598Z,11.00
2017-11-12T19:38:10.310Z,24.93
2017-11-12T19:40:38.536Z,10.30
2017-11-12T19:43:06.252Z,28.00
2017-11-12T19:45:33.980Z,10.40
2017-11-12T19:48:01.642Z,13.70
2017-11-12T19:50:30.166Z,15.90
2017-11-12T19:52:57.858Z,41.83
2017-11-12T19:55:25.560Z,27.53
2017-11-12T19:57:54.002Z,11.80
2017-11-12T20:00:21.824Z,15.90
2017-11-12T20:02:49.591Z,21.67
2017-11-12T20:05:17.353Z,12.67
2017-11-12T20:07:45.025Z,12.50
2017-11-12T20:10:12.801Z,12.20
2017-11-12T20:12:40.492Z,17.27
2017-11-12T20:15:08.976Z,20.63
2017-11-12T20:17:36.725Z,14.00
2017-11-12T20:20:04.410Z,15.20
2017-11-12T20:22:32.162Z,12.77
2017-11-12T20:25:00.701Z,13.10
2017-11-12T20:27:29.174Z,13.00
2017-11-12T20:29:56.894Z,13.50
2017-11-12T20:32:24.622Z,11.63
2017-11-12T20:34:52.298Z,12.70
2017-11-12T20:37:20.823Z,12.83
2017-11-12T20:39:48.483Z,11.20
2017-11-12T20:42:16.231Z,14.87
2017-11-12T20:44:43.927Z,14.90
2017-11-12T20:47:11.694Z,14.83
2017-11-12T20:49:39.393Z,14.50
2017-11-12T20:52:07.664Z,15.53
2017-11-12T20:54:35.343Z,16.00
2017-11-12T20:57:03.094Z,16.77
2017-11-12T20:59:30.825Z,17.80
2017-11-12T21:01:59.343Z,20.10
2017-11-12T21:04:28.533Z,19.30
2017-11-12T21:06:56.279Z,21.47
2017-11-12T21:09:23.976Z,19.40
2017-11-12T21:11:51.785Z,16.90
2017-11-12T21:14:20.253Z,17.03
2017-11-12T21:16:47.992Z,24.40
2017-11-12T21:19:15.697Z,25.23
2017-11-12T21:21:44.232Z,36.47
2017-11-12T21:24:12.549Z,25.37
2017-11-12T21:29:44.409Z,16.33
2017-11-12T21:32:15.161Z,15.60
2017-11-12T21:34:49.136Z,17.03
2017-11-12T21:37:26.783Z,20.13
2017-11-12T21:39:54.495Z,22.20
2017-11-12T21:42:22.186Z,13.97
2017-11-12T21:44:49.925Z,14.80
2017-11-12T21:47:18.434Z,16.60
2017-11-12T21:49:46.156Z,21.33
2017-11-12T21:52:13.865Z,21.97
2017-11-12T21:54:41.618Z,15.77
2017-11-12T21:57:09.283Z,20.73
2017-11-12T21:59:37.508Z,13.70
2017-11-12T22:02:05.180Z,14.47
2017-11-12T22:04:33.661Z,15.37
2017-11-12T22:07:02.086Z,16.40
2017-11-12T22:09:29.804Z,12.80
2017-11-12T22:11:58.226Z,13.10
2017-11-12T22:14:25.932Z,10.03
2017-11-12T22:16:54.351Z,9.37
2017-11-12T22:19:22.073Z,9.50
2017-11-12T22:21:50.555Z,10.63
2017-11-12T22:24:18.301Z,9.73
2017-11-12T22:26:45.965Z,9.50
2017-11-12T22:29:14.435Z,8.43
2017-11-12T22:31:42.134Z,7.43
2017-11-12T22:34:09.872Z,8.77
2017-11-12T22:36:38.297Z,8.20
2017-11-12T22:39:05.979Z,9.67
2017-11-12T22:41:33.677Z,7.33
2017-11-12T22:44:02.109Z,8.17
2017-11-12T22:46:29.817Z,8.10
2017-11-12T22:48:58.237Z,9.10
2017-11-12T22:51:25.940Z,7.93
2017-11-12T22:53:54.368Z,9.03
2017-11-12T22:56:22.071Z,8.93
2017-11-12T22:58:49.732Z,8.73
2017-11-12T23:01:17.430Z,7.50
2017-11-12T23:03:45.097Z,10.63
2017-11-12T23:06:12.801Z,7.73
2017-11-12T23:08:40.456Z,8.90
2017-11-12T23:11:08.193Z,7.43
2017-11-12T23:13:35.893Z,8.50
2017-11-12T23:16:04.389Z,10.03
2017-11-12T23:18:32.828Z,13.93
2017-11-12T23:21:00.524Z,8.87
2017-11-12T23:23:28.950Z,7.23
2017-11-12T23:25:57.404Z,9.30
2017-11-12T23:28:25.057Z,7.23
2017-11-12T23:30:52.762Z,8.07
2017-11-12T23:33:20.423Z,8.10
2017-11-12T23:35:48.138Z,10.57
2017-11-12T23:38:15.795Z,8.17
2017-11-12T23:40:43.448Z,8.43
2017-11-12T23:43:11.140Z,8.63
2017-11-12T23:45:38.788Z,9.63
2017-11-12T23:48:06.517Z,11.30
2017-11-12T23:50:34.945Z,10.40
2017-11-12T23:53:02.647Z,10.50
2017-11-12T23:55:31.164Z,9.40
2017-11-12T23:57:59.498Z,11.73
